Disclaimer

Please do not use the information listed here in-flight or in-navigation, as they are not provided to us by the airports but are provided by volunteers, so they might be outdated.

Search


Regions


Airport information page

Radio informations:
Tower (TWR) - 118.1 MHz
RDO - 126.9 MHz
Ground (GND) - 121.9 MHz
Approach (APP) - 119.4 MHz

Airport informations:
Latitude: 12° 08' 29.38" N
Longitude: 086° 10' 05.44" W
Elevation: 194 feet - 59 meters
Operating hours: Remarks
Operating agency: Military-civil joint use airport
Timezone: UTC-6
Fuel: N/A

Runway information:
09/27 - 8012 x 148 feet< - >2442 x 45 meters

Recent METARs:
MNMG 190400Z 00000KT 9999 FEW028 25/21 Q1011 A2987 NOSIG
MNMG 190400Z 00000KT 9999 FEW028 25/21 Q1011 A2987 NOSIG
MNMG 190500Z 10006KT 9999 FEW028 BKN070 26/23 Q1011 A2987 NOSIG

Airport on the map: